Time;durP1;ratioP1;P1;durP2;ratioP2;P2;SDS_P1;SDS_P2;PMS_P1;PMS_P2;Temp;Humidity;BMP_temperature;BMP_pressure;BME280_temperature;BME280_humidity;BME280_pressure;Samples;Min_cycle;Max_cycle;Signal;HPM_P1;HPM_P2
2021/09/09 00:02:09;;;;;;;3.75;2.12;;;12.20;99.90;;;;;;4390294;32;20586;-72
2021/09/09 00:04:35;;;;;;;4.25;2.37;;;12.20;99.90;;;;;;4390570;32;20085;-74
2021/09/09 00:07:02;;;;;;;4.00;2.50;;;12.20;99.90;;;;;;4378193;32;20061;-72
2021/09/09 00:09:28;;;;;;;2.95;2.20;;;12.20;99.90;;;;;;4377854;32;20068;-72
2021/09/09 00:11:54;;;;;;;3.62;2.40;;;12.20;99.90;;;;;;4390529;32;20572;-72
2021/09/09 00:14:20;;;;;;;4.25;2.30;;;12.20;99.90;;;;;;4391426;32;20145;-72
2021/09/09 00:16:47;;;;;;;5.55;2.90;;;12.20;99.90;;;;;;4378082;32;20089;-71
2021/09/09 00:19:13;;;;;;;3.42;2.20;;;12.20;99.90;;;;;;4377739;32;20157;-72
2021/09/09 00:21:39;;;;;;;5.28;2.50;;;12.10;99.90;;;;;;4377551;32;20089;-72
2021/09/09 00:24:05;;;;;;;3.40;2.33;;;12.20;99.90;;;;;;4390665;32;20104;-72
2021/09/09 00:26:31;;;;;;;3.47;2.28;;;12.10;99.90;;;;;;4390986;32;20081;-72
2021/09/09 00:28:57;;;;;;;4.28;2.35;;;12.10;99.90;;;;;;4353285;32;20097;-72
2021/09/09 00:31:23;;;;;;;5.43;2.33;;;12.10;99.90;;;;;;4377811;32;20169;-72
2021/09/09 00:33:50;;;;;;;4.40;2.30;;;12.10;99.90;;;;;;4389816;32;20512;-72
2021/09/09 00:36:16;;;;;;;3.80;2.03;;;12.10;99.90;;;;;;4378202;32;20165;-72
2021/09/09 00:38:42;;;;;;;5.78;2.45;;;12.10;99.90;;;;;;4365148;32;20166;-72
2021/09/09 00:41:08;;;;;;;3.55;2.20;;;12.10;99.90;;;;;;4377235;32;20508;-73
2021/09/09 00:43:34;;;;;;;4.50;2.20;;;12.00;99.90;;;;;;4389926;32;20070;-73
2021/09/09 00:46:00;;;;;;;2.92;2.00;;;12.00;99.90;;;;;;4364532;32;20100;-72
2021/09/09 00:48:27;;;;;;;3.03;2.17;;;12.00;99.90;;;;;;4377724;32;20086;-71
2021/09/09 00:50:53;;;;;;;3.65;2.05;;;12.00;99.90;;;;;;4377867;32;20643;-72
2021/09/09 00:53:19;;;;;;;2.95;2.05;;;12.00;99.90;;;;;;4390026;32;20141;-72
2021/09/09 00:55:47;;;;;;;4.15;2.62;;;11.90;99.90;;;;;;4377769;32;20088;-72
2021/09/09 00:58:14;;;;;;;3.72;2.22;;;12.00;99.90;;;;;;4377798;32;20097;-72
2021/09/09 01:00:40;;;;;;;4.68;2.20;;;12.00;99.90;;;;;;4377436;32;20499;-72
2021/09/09 01:03:07;;;;;;;3.37;2.15;;;12.10;99.90;;;;;;4390092;32;20141;-73
2021/09/09 01:05:34;;;;;;;2.90;2.20;;;12.10;99.90;;;;;;4390078;32;20223;-73
2021/09/09 01:08:00;;;;;;;5.65;2.55;;;12.00;99.90;;;;;;4389910;32;20073;-72
2021/09/09 01:10:27;;;;;;;3.83;2.30;;;12.10;99.90;;;;;;4377356;32;20448;-74
2021/09/09 01:12:53;;;;;;;5.60;2.58;;;12.10;99.90;;;;;;4364485;32;20077;-72
2021/09/09 01:15:20;;;;;;;4.10;2.50;;;12.10;99.90;;;;;;4377254;32;20070;-72
2021/09/09 01:17:47;;;;;;;3.72;3.17;;;12.10;99.90;;;;;;4390007;32;20161;-72
2021/09/09 01:20:14;;;;;;;4.22;2.50;;;12.10;99.90;;;;;;4377670;32;20172;-73
2021/09/09 01:22:41;;;;;;;5.15;2.70;;;12.00;99.90;;;;;;4392635;32;20192;-72
2021/09/09 01:25:08;;;;;;;4.90;2.30;;;12.10;99.90;;;;;;4381650;32;20078;-72
2021/09/09 01:27:35;;;;;;;5.50;2.28;;;12.10;99.90;;;;;;4392800;32;20081;-72
2021/09/09 01:32:40;;;;;;;2.60;2.05;;;12.10;99.90;;;;;;3857850;37;20070;-72
2021/09/09 01:35:07;;;;;;;4.95;2.58;;;12.00;99.90;;;;;;4406861;32;20061;-72
2021/09/09 01:37:33;;;;;;;3.53;2.25;;;12.00;99.90;;;;;;4406938;32;20153;-72
2021/09/09 01:39:59;;;;;;;6.82;2.85;;;12.00;99.90;;;;;;4412435;32;20078;-72
2021/09/09 01:42:25;;;;;;;3.33;2.30;;;12.00;99.90;;;;;;4431036;32;20054;-72
2021/09/09 01:44:52;;;;;;;4.12;2.33;;;12.00;99.90;;;;;;4433523;32;20069;-72
2021/09/09 01:47:18;;;;;;;3.15;2.50;;;12.00;99.90;;;;;;4415066;32;20084;-70
2021/09/09 01:49:44;;;;;;;6.80;2.58;;;11.90;99.90;;;;;;4393608;32;20512;-72
2021/09/09 01:52:10;;;;;;;4.90;2.50;;;11.90;99.90;;;;;;4418187;32;20084;-71
2021/09/09 01:54:37;;;;;;;5.87;2.95;;;11.90;99.90;;;;;;4418668;32;20177;-72
2021/09/09 01:57:03;;;;;;;5.80;2.22;;;12.00;99.90;;;;;;4418226;32;20061;-72
2021/09/09 01:59:29;;;;;;;3.87;2.62;;;11.90;99.90;;;;;;4393066;32;20085;-72
2021/09/09 02:01:55;;;;;;;3.55;2.30;;;12.00;99.90;;;;;;4405735;32;20084;-73
2021/09/09 02:04:22;;;;;;;4.03;2.80;;;12.00;99.90;;;;;;4418405;32;20150;-72
2021/09/09 02:06:48;;;;;;;6.40;2.62;;;12.00;99.90;;;;;;4419392;32;20080;-71
2021/09/09 02:09:14;;;;;;;5.28;2.70;;;12.00;99.90;;;;;;4420575;32;20081;-72
2021/09/09 02:11:40;;;;;;;4.32;2.70;;;12.10;99.90;;;;;;4393130;32;20506;-71
2021/09/09 02:14:07;;;;;;;4.25;2.70;;;12.10;99.90;;;;;;4392814;32;20080;-72
2021/09/09 02:16:33;;;;;;;4.37;2.53;;;12.10;99.90;;;;;;4419512;32;20074;-71
2021/09/09 02:18:59;;;;;;;4.75;2.70;;;12.10;99.90;;;;;;4418334;32;20524;-72
2021/09/09 02:21:25;;;;;;;3.92;2.78;;;12.10;99.90;;;;;;4392951;32;20085;-71
2021/09/09 02:23:52;;;;;;;6.15;2.47;;;12.10;99.90;;;;;;4405399;32;20235;-72
2021/09/09 02:26:18;;;;;;;4.40;2.47;;;12.10;99.90;;;;;;4419228;32;20065;-72
2021/09/09 02:28:44;;;;;;;4.25;2.92;;;12.10;99.90;;;;;;4405477;32;20077;-72
2021/09/09 02:31:10;;;;;;;5.15;3.08;;;12.00;99.90;;;;;;4392335;32;20169;-72
2021/09/09 02:33:37;;;;;;;4.25;2.70;;;12.00;99.90;;;;;;4418011;32;20076;-71
2021/09/09 02:36:03;;;;;;;5.45;2.87;;;12.00;99.90;;;;;;4404794;32;20057;-72
2021/09/09 02:38:29;;;;;;;4.68;2.65;;;12.10;99.90;;;;;;4405210;32;20508;-72
2021/09/09 02:40:55;;;;;;;5.68;2.80;;;12.10;99.90;;;;;;4380262;32;20163;-71
2021/09/09 02:43:21;;;;;;;4.78;2.70;;;12.10;99.90;;;;;;4411884;32;20596;-71
2021/09/09 02:45:48;;;;;;;6.80;2.83;;;12.20;99.90;;;;;;4382241;32;20058;-72
2021/09/09 02:48:14;;;;;;;4.75;2.95;;;12.30;99.90;;;;;;4407537;32;20085;-72
2021/09/09 02:50:40;;;;;;;5.82;2.92;;;12.40;99.90;;;;;;4394484;32;20062;-71
2021/09/09 02:53:06;;;;;;;4.47;2.75;;;12.40;99.90;;;;;;4394904;32;20093;-71
2021/09/09 02:55:32;;;;;;;5.15;2.75;;;12.40;99.90;;;;;;4407490;32;20070;-71
2021/09/09 02:57:58;;;;;;;4.50;2.80;;;12.50;99.90;;;;;;4407431;32;20070;-72
2021/09/09 03:00:25;;;;;;;5.37;2.87;;;12.60;99.90;;;;;;4394381;32;20503;-72
2021/09/09 03:02:51;;;;;;;6.82;2.78;;;12.60;99.90;;;;;;4394507;32;20074;-71
2021/09/09 03:05:17;;;;;;;4.47;3.00;;;12.60;99.90;;;;;;4406785;32;20079;-72
2021/09/09 03:07:43;;;;;;;5.03;3.20;;;12.70;99.90;;;;;;4394468;32;20092;-72
2021/09/09 03:10:10;;;;;;;4.70;2.87;;;12.70;99.90;;;;;;4407212;32;20525;-72
2021/09/09 03:12:36;;;;;;;5.55;2.97;;;12.70;99.90;;;;;;4381679;32;20073;-72
2021/09/09 03:15:03;;;;;;;5.87;2.70;;;12.70;99.90;;;;;;4381795;32;20154;-72
2021/09/09 03:17:29;;;;;;;5.10;2.70;;;12.80;99.90;;;;;;4394194;32;20518;-71
2021/09/09 03:19:55;;;;;;;4.85;2.95;;;12.80;99.90;;;;;;4419718;32;20110;-71
2021/09/09 03:22:22;;;;;;;3.62;2.90;;;12.70;99.90;;;;;;4407216;32;20077;-71
2021/09/09 03:24:48;;;;;;;4.00;2.50;;;12.80;99.90;;;;;;4408275;32;20142;-72
2021/09/09 03:27:14;;;;;;;5.50;2.83;;;12.80;99.90;;;;;;4406780;32;20088;-72
2021/09/09 03:29:40;;;;;;;3.72;2.60;;;12.80;99.90;;;;;;4406389;32;20081;-72
2021/09/09 03:32:07;;;;;;;9.13;4.25;;;12.90;99.90;;;;;;4393522;32;20073;-71
2021/09/09 03:34:33;;;;;;;3.83;2.75;;;12.90;99.90;;;;;;4381604;32;20571;-72
2021/09/09 03:36:59;;;;;;;4.53;2.97;;;12.80;99.90;;;;;;4394868;32;20073;-72
2021/09/09 03:39:25;;;;;;;6.45;3.28;;;12.80;99.90;;;;;;4406505;32;20133;-71
2021/09/09 03:41:51;;;;;;;6.60;3.05;;;12.70;99.90;;;;;;4368886;32;20134;-71
2021/09/09 03:44:18;;;;;;;4.18;2.60;;;12.50;99.90;;;;;;4381945;32;20495;-72
2021/09/09 03:46:44;;;;;;;5.12;2.90;;;12.50;99.90;;;;;;4407569;32;20536;-72
2021/09/09 03:49:10;;;;;;;6.87;3.17;;;12.40;99.90;;;;;;4406339;32;20069;-71
2021/09/09 03:51:36;;;;;;;4.65;2.90;;;12.40;99.90;;;;;;4395573;32;20091;-71
2021/09/09 03:54:02;;;;;;;3.87;2.87;;;12.40;99.90;;;;;;4393760;32;20082;-73
2021/09/09 03:56:29;;;;;;;5.97;3.30;;;12.30;99.90;;;;;;4406519;32;20499;-72
2021/09/09 03:58:55;;;;;;;5.43;2.80;;;12.20;99.90;;;;;;4394336;32;20157;-73
2021/09/09 04:01:21;;;;;;;5.43;3.00;;;12.30;99.90;;;;;;4393740;32;20069;-72
2021/09/09 04:03:48;;;;;;;4.95;2.90;;;12.30;99.90;;;;;;4393688;32;20152;-72
2021/09/09 04:06:15;;;;;;;3.87;3.05;;;12.20;99.90;;;;;;4368645;32;20073;-72
2021/09/09 04:08:41;;;;;;;4.20;2.80;;;12.30;99.90;;;;;;4393634;32;20455;-72
2021/09/09 04:11:07;;;;;;;4.93;2.70;;;12.30;99.90;;;;;;4406221;32;20241;-71
2021/09/09 04:13:33;;;;;;;4.50;2.83;;;12.30;99.90;;;;;;4381196;32;20077;-72
2021/09/09 04:15:59;;;;;;;4.68;2.87;;;12.30;99.90;;;;;;4393240;32;20073;-71
2021/09/09 04:18:25;;;;;;;4.82;2.83;;;12.30;99.90;;;;;;4393427;32;20086;-72
2021/09/09 04:20:51;;;;;;;6.28;3.10;;;12.20;99.90;;;;;;4382566;32;20073;-72
2021/09/09 04:23:18;;;;;;;4.07;2.60;;;12.30;99.90;;;;;;4381317;32;20527;-72
2021/09/09 04:25:44;;;;;;;5.18;3.15;;;12.20;99.90;;;;;;4408277;32;20077;-72
2021/09/09 04:28:10;;;;;;;5.10;3.20;;;12.20;99.90;;;;;;4397751;32;20134;-72
2021/09/09 04:30:36;;;;;;;4.53;2.90;;;12.30;99.90;;;;;;4408542;32;20133;-72
2021/09/09 04:33:02;;;;;;;5.22;3.08;;;12.30;99.90;;;;;;4407022;32;20062;-72
2021/09/09 04:35:28;;;;;;;4.15;2.80;;;12.30;99.90;;;;;;4393356;32;20069;-72
2021/09/09 04:37:55;;;;;;;4.15;2.97;;;12.30;99.90;;;;;;4405928;32;20070;-74
2021/09/09 04:40:21;;;;;;;4.70;3.10;;;12.30;99.90;;;;;;4380667;32;20066;-72
2021/09/09 04:42:47;;;;;;;4.78;2.90;;;12.30;99.90;;;;;;4405603;32;20144;-72
2021/09/09 04:45:13;;;;;;;5.20;2.83;;;12.30;99.90;;;;;;4392745;32;20447;-71
2021/09/09 04:47:39;;;;;;;4.97;3.12;;;12.30;99.90;;;;;;4380940;32;20112;-72
2021/09/09 04:50:06;;;;;;;5.10;2.95;;;12.40;99.90;;;;;;4405648;32;20066;-71
2021/09/09 04:52:32;;;;;;;3.70;2.72;;;12.40;99.90;;;;;;4405241;32;20093;-71
2021/09/09 04:54:58;;;;;;;4.80;3.10;;;12.40;99.90;;;;;;4393064;32;20088;-71
2021/09/09 04:57:25;;;;;;;5.57;3.17;;;12.40;99.90;;;;;;4380869;32;20074;-72
2021/09/09 04:59:51;;;;;;;3.70;2.60;;;12.40;99.90;;;;;;4392751;32;20101;-71
2021/09/09 05:02:17;;;;;;;5.28;3.25;;;12.40;99.90;;;;;;4393073;32;20506;-72
2021/09/09 05:04:43;;;;;;;5.60;2.70;;;12.40;99.90;;;;;;4380205;32;20501;-71
2021/09/09 05:07:09;;;;;;;3.78;2.35;;;12.40;99.90;;;;;;4392557;32;20104;-71
2021/09/09 05:09:35;;;;;;;6.55;3.00;;;12.40;99.90;;;;;;4405500;32;20092;-71
2021/09/09 05:12:02;;;;;;;4.32;2.60;;;12.50;99.90;;;;;;4367597;32;20069;-71
2021/09/09 05:14:28;;;;;;;4.30;2.70;;;12.60;99.90;;;;;;4367851;32;20072;-71
2021/09/09 05:16:54;;;;;;;4.87;2.75;;;12.60;99.90;;;;;;4393046;32;20082;-71
2021/09/09 05:19:20;;;;;;;3.17;2.40;;;12.70;99.90;;;;;;4405362;32;20591;-71
2021/09/09 05:21:46;;;;;;;4.93;2.78;;;12.70;99.90;;;;;;4404864;32;20432;-72
2021/09/09 05:24:13;;;;;;;3.60;2.65;;;12.70;99.90;;;;;;4406943;32;20065;-71
2021/09/09 05:26:39;;;;;;;5.15;2.80;;;12.50;99.90;;;;;;4392750;32;20176;-71
2021/09/09 05:29:05;;;;;;;4.30;2.60;;;12.60;99.90;;;;;;4405278;32;20082;-71
2021/09/09 05:31:31;;;;;;;3.95;2.85;;;12.60;99.90;;;;;;4392445;32;20069;-72
2021/09/09 05:33:57;;;;;;;3.55;2.55;;;12.60;99.90;;;;;;4381922;32;20060;-72
2021/09/09 05:36:26;;;;;;;5.07;2.90;;;12.80;99.90;;;;;;4406787;32;20479;-72
2021/09/09 05:38:52;;;;;;;4.05;2.42;;;12.80;99.90;;;;;;4405078;32;20077;-72
2021/09/09 05:41:18;;;;;;;4.43;3.10;;;12.80;99.90;;;;;;4405069;32;20423;-72
2021/09/09 05:43:45;;;;;;;4.60;2.67;;;12.80;99.90;;;;;;4406350;32;20069;-71
2021/09/09 05:46:11;;;;;;;5.30;2.67;;;12.80;99.90;;;;;;4407056;32;20502;-71
2021/09/09 05:48:37;;;;;;;6.10;2.80;;;12.60;99.90;;;;;;4379992;32;20161;-72
2021/09/09 05:51:04;;;;;;;4.95;3.03;;;12.60;99.90;;;;;;4379577;32;20527;-73
2021/09/09 05:53:30;;;;;;;4.15;2.83;;;12.50;99.90;;;;;;4406116;32;20071;-73
2021/09/09 05:55:56;;;;;;;5.30;3.20;;;12.60;99.90;;;;;;4392259;32;20134;-71
2021/09/09 05:58:23;;;;;;;6.05;3.72;;;12.60;99.90;;;;;;4392426;32;20073;-73
2021/09/09 06:00:49;;;;;;;5.35;3.08;;;12.60;99.90;;;;;;4380212;32;20088;-73
2021/09/09 06:03:15;;;;;;;4.25;2.80;;;12.70;99.90;;;;;;4379863;32;20519;-74
2021/09/09 06:05:42;;;;;;;4.87;2.90;;;12.80;99.90;;;;;;4380288;32;20077;-72
2021/09/09 06:08:08;;;;;;;5.15;2.62;;;12.70;99.90;;;;;;4379914;32;20065;-71
2021/09/09 06:10:34;;;;;;;5.37;3.00;;;12.80;99.90;;;;;;4392858;32;20080;-73
2021/09/09 06:13:00;;;;;;;7.12;3.10;;;12.90;99.90;;;;;;4392331;32;20095;-71
2021/09/09 06:15:26;;;;;;;5.43;3.10;;;12.90;99.90;;;;;;4392465;32;20242;-71
2021/09/09 06:17:52;;;;;;;6.90;2.90;;;12.90;99.90;;;;;;4380716;32;20093;-72
2021/09/09 06:20:19;;;;;;;5.10;3.10;;;13.00;99.90;;;;;;4370000;32;20076;-73
2021/09/09 06:22:45;;;;;;;4.85;2.75;;;13.00;99.90;;;;;;4382760;32;20070;-72
2021/09/09 06:25:11;;;;;;;5.12;3.35;;;12.80;99.90;;;;;;4382440;32;20137;-70
2021/09/09 06:27:37;;;;;;;6.15;3.03;;;12.80;99.90;;;;;;4395043;32;20072;-72
2021/09/09 06:30:04;;;;;;;5.62;3.20;;;12.90;99.90;;;;;;4370479;32;20072;-72
2021/09/09 06:32:30;;;;;;;5.25;3.05;;;12.80;99.90;;;;;;4382236;32;20084;-72
2021/09/09 06:34:57;;;;;;;5.93;3.20;;;12.80;99.90;;;;;;4395024;32;20062;-71
2021/09/09 06:37:23;;;;;;;6.00;3.37;;;12.70;99.90;;;;;;4395039;32;20153;-72
2021/09/09 06:39:49;;;;;;;5.60;3.20;;;12.70;99.90;;;;;;4394832;32;20084;-73
2021/09/09 06:42:15;;;;;;;5.30;2.97;;;12.60;99.90;;;;;;4382490;32;20518;-73
2021/09/09 06:44:42;;;;;;;4.57;2.83;;;12.50;99.90;;;;;;4382508;32;20156;-73
2021/09/09 06:47:08;;;;;;;5.30;3.05;;;12.40;99.90;;;;;;4382325;32;20096;-74
2021/09/09 06:49:34;;;;;;;4.82;3.25;;;12.40;99.90;;;;;;4394717;32;20086;-73
2021/09/09 06:52:00;;;;;;;6.95;3.37;;;12.40;99.90;;;;;;4394788;32;20505;-73
2021/09/09 06:54:27;;;;;;;12.90;7.40;;;12.50;99.90;;;;;;4382021;32;20145;-75
2021/09/09 06:56:53;;;;;;;4.15;2.90;;;12.50;99.90;;;;;;4369976;32;20154;-74
2021/09/09 06:59:19;;;;;;;4.65;3.20;;;12.40;99.90;;;;;;4394775;32;20520;-75
2021/09/09 07:01:45;;;;;;;5.75;3.00;;;12.30;99.90;;;;;;4382518;32;20088;-74
2021/09/09 07:04:11;;;;;;;5.32;3.20;;;12.30;99.90;;;;;;4394764;32;20069;-72
2021/09/09 07:06:37;;;;;;;4.53;3.20;;;12.30;99.90;;;;;;4394633;32;20242;-74
2021/09/09 07:09:04;;;;;;;5.60;3.37;;;12.30;99.90;;;;;;4382537;32;20567;-74
2021/09/09 07:11:30;;;;;;;5.47;3.72;;;12.30;99.90;;;;;;4407675;32;20090;-72
2021/09/09 07:13:56;;;;;;;5.28;3.35;;;12.40;99.90;;;;;;4394721;32;20081;-73
2021/09/09 07:16:22;;;;;;;6.45;3.50;;;12.50;99.90;;;;;;4394554;32;20092;-72
2021/09/09 07:18:48;;;;;;;5.72;3.35;;;12.60;99.90;;;;;;4411231;32;20076;-71
2021/09/09 07:21:14;;;;;;;6.30;3.58;;;12.80;99.90;;;;;;4401080;32;20575;-75
2021/09/09 07:23:41;;;;;;;7.57;3.45;;;13.00;99.90;;;;;;4407129;32;20092;-71
2021/09/09 07:26:07;;;;;;;6.37;3.55;;;13.00;99.90;;;;;;4394499;32;20499;-73
2021/09/09 07:28:33;;;;;;;6.93;4.03;;;13.00;99.90;;;;;;4407268;32;20073;-74
2021/09/09 07:30:59;;;;;;;7.72;3.45;;;13.20;99.90;;;;;;4381844;32;20085;-73
2021/09/09 07:33:26;;;;;;;5.15;3.42;;;13.20;99.90;;;;;;4385493;32;20211;-75
2021/09/09 07:35:52;;;;;;;8.07;3.22;;;13.40;99.90;;;;;;4399258;32;20078;-74
2021/09/09 07:38:18;;;;;;;6.12;3.37;;;13.20;99.90;;;;;;4378271;32;20129;-76
2021/09/09 07:40:44;;;;;;;5.70;3.55;;;13.40;99.90;;;;;;4381193;32;20544;-75
2021/09/09 07:43:10;;;;;;;5.70;3.67;;;13.40;99.90;;;;;;4399951;32;20077;-75
2021/09/09 07:45:37;;;;;;;6.12;3.50;;;13.30;99.90;;;;;;4382747;32;20066;-73
2021/09/09 07:48:03;;;;;;;6.20;3.50;;;13.30;99.90;;;;;;4382422;32;20069;-73
2021/09/09 07:50:30;;;;;;;5.45;3.42;;;13.50;99.90;;;;;;4394027;32;20065;-73
2021/09/09 07:52:57;;;;;;;5.72;3.53;;;13.40;99.90;;;;;;4381200;32;20154;-74
2021/09/09 07:55:24;;;;;;;6.60;3.70;;;13.40;99.90;;;;;;4382501;32;20464;-73
2021/09/09 07:57:50;;;;;;;6.65;3.95;;;13.50;99.90;;;;;;4393438;32;20076;-73
2021/09/09 08:00:16;;;;;;;5.82;3.80;;;13.50;99.90;;;;;;4366646;32;20533;-73
2021/09/09 08:02:43;;;;;;;5.47;3.80;;;13.40;99.90;;;;;;4366803;32;20070;-73
2021/09/09 08:05:10;;;;;;;6.53;3.60;;;13.60;99.90;;;;;;4380347;32;20204;-73
2021/09/09 08:07:41;;;;;;;5.65;3.55;;;13.60;99.90;;;;;;4370943;32;20097;-67
2021/09/09 08:10:09;;;;;;;8.73;3.80;;;13.60;99.90;;;;;;4376569;32;20077;-76
2021/09/09 08:12:35;;;;;;;5.53;3.62;;;13.60;99.90;;;;;;4387478;32;20065;-75
2021/09/09 08:15:01;;;;;;;4.93;3.58;;;13.60;99.90;;;;;;4380708;32;20098;-76
2021/09/09 08:17:27;;;;;;;5.85;3.55;;;13.60;99.90;;;;;;4385679;32;20661;-75
2021/09/09 08:19:53;;;;;;;5.55;3.20;;;13.70;99.90;;;;;;4389446;32;20066;-74
2021/09/09 08:22:20;;;;;;;4.20;3.40;;;13.80;99.90;;;;;;4390582;32;20079;-72
2021/09/09 08:24:46;;;;;;;5.30;3.30;;;13.90;99.90;;;;;;4391878;32;20086;-75
2021/09/09 08:27:12;;;;;;;6.35;3.75;;;14.00;99.90;;;;;;4390072;32;20152;-74
2021/09/09 08:29:38;;;;;;;6.07;3.60;;;14.00;99.90;;;;;;4392799;32;20078;-74
2021/09/09 08:32:05;;;;;;;5.80;3.50;;;14.00;99.90;;;;;;4376280;32;20074;-75
2021/09/09 08:34:31;;;;;;;7.03;3.50;;;14.10;99.90;;;;;;4370621;32;20526;-73
2021/09/09 08:36:57;;;;;;;8.88;3.30;;;14.20;99.90;;;;;;4379618;32;20069;-72
2021/09/09 08:39:24;;;;;;;4.78;3.35;;;14.20;99.90;;;;;;4388380;32;20149;-72
2021/09/09 08:41:50;;;;;;;5.00;3.33;;;14.20;99.90;;;;;;4384736;32;20077;-73
2021/09/09 08:44:16;;;;;;;5.75;3.37;;;14.20;99.90;;;;;;4375788;32;20074;-73
2021/09/09 08:46:42;;;;;;;5.22;3.35;;;14.30;99.90;;;;;;4381846;32;20077;-72
2021/09/09 08:49:08;;;;;;;5.75;3.92;;;14.20;99.90;;;;;;4365440;32;20106;-73
2021/09/09 08:51:35;;;;;;;7.10;3.78;;;14.10;99.90;;;;;;4402187;32;20097;-72
2021/09/09 08:54:02;;;;;;;6.05;3.40;;;14.10;99.90;;;;;;4389643;32;20092;-71
2021/09/09 08:56:28;;;;;;;7.60;3.50;;;14.20;99.90;;;;;;4377495;32;20066;-72
2021/09/09 08:58:55;;;;;;;5.78;3.78;;;14.30;99.90;;;;;;4384984;32;20588;-73
2021/09/09 09:01:21;;;;;;;6.93;4.03;;;14.30;99.90;;;;;;4392233;32;20154;-72
2021/09/09 09:03:53;;;;;;;6.85;3.70;;;14.40;99.90;;;;;;4375421;32;20074;-73
2021/09/09 09:06:25;;;;;;;5.53;3.85;;;14.40;99.90;;;;;;4366289;32;20078;-72
2021/09/09 09:09:04;;;;;;;6.22;3.72;;;14.40;99.90;;;;;;4396773;32;20068;-71
2021/09/09 09:11:44;;;;;;;5.47;3.92;;;14.40;99.90;;;;;;4391656;32;20073;-73
2021/09/09 09:14:21;;;;;;;6.82;3.70;;;14.60;99.90;;;;;;4354543;32;20502;-73
2021/09/09 09:16:58;;;;;;;6.00;3.58;;;14.60;99.90;;;;;;4374701;32;20092;-72
2021/09/09 09:19:33;;;;;;;4.85;3.30;;;14.70;99.90;;;;;;4382200;32;20149;-74
2021/09/09 09:22:04;;;;;;;5.87;3.53;;;14.80;99.90;;;;;;4369429;32;20069;-74
2021/09/09 09:24:33;;;;;;;5.78;3.60;;;14.80;99.90;;;;;;4404560;32;20609;-73
2021/09/09 09:27:08;;;;;;;6.18;3.70;;;14.80;99.90;;;;;;4384494;32;20576;-75
2021/09/09 09:29:35;;;;;;;6.40;3.53;;;14.90;99.90;;;;;;4385937;32;20069;-73
2021/09/09 09:32:16;;;;;;;5.70;3.53;;;15.00;99.90;;;;;;4371134;32;20077;-73
2021/09/09 09:34:43;;;;;;;5.75;3.85;;;15.00;99.90;;;;;;4386572;32;20154;-76
2021/09/09 09:37:09;;;;;;;7.95;4.20;;;15.10;99.90;;;;;;4386632;32;20065;-74
2021/09/09 09:39:36;;;;;;;5.97;4.05;;;15.10;99.90;;;;;;4339272;32;20094;-75
2021/09/09 09:42:05;;;;;;;5.32;3.65;;;15.20;99.90;;;;;;4373776;32;20496;-68
2021/09/09 09:44:35;;;;;;;6.53;3.70;;;15.20;99.90;;;;;;4383057;32;20231;-74
2021/09/09 09:47:20;;;;;;;6.68;3.42;;;15.20;99.90;;;;;;4366044;32;20077;-73
2021/09/09 09:49:50;;;;;;;7.00;4.07;;;15.30;99.90;;;;;;4388780;32;20082;-78
2021/09/09 09:52:29;;;;;;;7.80;4.05;;;15.30;99.90;;;;;;4389357;32;20078;-77
2021/09/09 09:54:57;;;;;;;7.65;3.80;;;15.40;99.90;;;;;;4392087;32;20081;-76
2021/09/09 09:57:26;;;;;;;6.85;3.55;;;15.50;99.90;;;;;;4365452;32;20084;-74
2021/09/09 09:59:53;;;;;;;7.65;4.35;;;15.70;99.90;;;;;;4365810;32;20077;-73
2021/09/09 10:02:19;;;;;;;6.25;3.83;;;15.80;99.90;;;;;;4377850;32;20145;-76
2021/09/09 10:04:48;;;;;;;6.62;3.90;;;15.90;99.90;;;;;;4386047;32;20089;-74
2021/09/09 10:07:15;;;;;;;6.60;3.85;;;15.90;99.90;;;;;;4366406;32;20097;-74
2021/09/09 10:09:42;;;;;;;8.60;4.35;;;16.00;99.90;;;;;;4374034;32;20081;-75
2021/09/09 10:12:10;;;;;;;6.62;4.32;;;16.10;99.90;;;;;;4393659;32;20151;-74
2021/09/09 10:14:41;;;;;;;7.35;4.47;;;16.10;99.90;;;;;;4363862;32;20085;-73
2021/09/09 10:17:07;;;;;;;6.93;4.37;;;16.20;99.90;;;;;;4373626;32;20067;-76
2021/09/09 10:19:34;;;;;;;10.07;4.62;;;16.20;99.90;;;;;;4408396;32;20077;-77
2021/09/09 10:22:11;;;;;;;7.00;4.40;;;16.30;99.90;;;;;;4382516;32;20511;-75
2021/09/09 10:24:40;;;;;;;6.47;3.85;;;16.30;99.90;;;;;;4391076;32;20088;-73
2021/09/09 10:27:33;;;;;;;8.63;4.53;;;16.30;99.90;;;;;;4373598;32;20093;-74
2021/09/09 10:30:04;;;;;;;7.00;4.20;;;16.20;99.90;;;;;;4370266;32;20169;-75
2021/09/09 10:32:34;;;;;;;7.22;4.72;;;16.30;99.90;;;;;;4385427;32;20058;-73
2021/09/09 10:35:30;;;;;;;6.00;4.07;;;16.30;99.90;;;;;;4391709;32;20069;-72
2021/09/09 10:38:19;;;;;;;8.63;4.32;;;16.30;99.90;;;;;;4381687;32;20077;-72
2021/09/09 10:40:46;;;;;;;7.75;4.55;;;16.30;99.90;;;;;;4403875;32;20540;-72
2021/09/09 10:43:37;;;;;;;5.95;4.25;;;16.40;99.90;;;;;;4385586;32;20172;-72
2021/09/09 10:46:10;;;;;;;7.53;4.43;;;16.40;99.90;;;;;;4409734;32;20092;-73
2021/09/09 10:48:37;;;;;;;7.25;4.20;;;16.30;99.90;;;;;;4407413;32;20096;-72
2021/09/09 10:51:04;;;;;;;5.65;3.40;;;16.40;99.90;;;;;;4369882;32;20074;-72
2021/09/09 10:53:42;;;;;;;6.50;4.47;;;16.50;99.90;;;;;;4408641;32;20222;-72
2021/09/09 10:56:34;;;;;;;6.28;4.20;;;16.60;99.90;;;;;;4369868;32;20432;-71
2021/09/09 10:59:11;;;;;;;6.40;4.35;;;16.60;99.90;;;;;;4407140;32;20446;-73
2021/09/09 11:01:41;;;;;;;6.60;4.15;;;16.70;99.90;;;;;;4406843;32;20157;-67
2021/09/09 11:04:07;;;;;;;5.72;3.40;;;16.80;99.90;;;;;;4375195;32;20444;-69
2021/09/09 11:06:34;;;;;;;6.50;3.62;;;16.90;99.90;;;;;;4376750;32;20069;-72
2021/09/09 11:09:12;;;;;;;6.45;3.90;;;16.90;99.90;;;;;;4393929;32;20487;-71
2021/09/09 11:11:40;;;;;;;5.25;3.35;;;17.00;99.90;;;;;;4380708;32;21845;-72
2021/09/09 11:14:08;;;;;;;7.43;3.20;;;17.10;99.90;;;;;;4387338;32;20080;-73
2021/09/09 11:16:36;;;;;;;5.20;3.72;;;17.20;99.90;;;;;;4378781;32;20141;-75
2021/09/09 11:19:07;;;;;;;6.05;3.70;;;17.30;99.90;;;;;;4380687;32;20054;-73
2021/09/09 11:21:36;;;;;;;6.72;3.87;;;17.40;99.90;;;;;;4373257;32;20093;-72
2021/09/09 11:24:07;;;;;;;6.10;3.80;;;17.50;99.90;;;;;;4377686;32;20078;-72
2021/09/09 11:26:35;;;;;;;6.15;3.47;;;17.50;99.90;;;;;;4388074;32;20513;-70
2021/09/09 11:29:01;;;;;;;5.82;3.42;;;17.60;99.90;;;;;;4386391;32;20536;-72
2021/09/09 11:31:57;;;;;;;8.35;3.60;;;17.60;99.90;;;;;;4384086;32;20163;-70
2021/09/09 11:34:25;;;;;;;6.57;3.67;;;17.60;99.90;;;;;;4386553;32;20130;-71
